Date,TemperatureHighF,TemperatureAvgF,TemperatureLowF,DewpointHighF,DewpointAvgF,DewpointLowF,HumidityHigh,HumidityAvg,HumidityLow,PressureMaxIn,PressureMinIn,WindSpeedMaxMPH,WindSpeedAvgMPH,GustSpeedMaxMPH,PrecipitationSumIn
2013-1-1,54.1,45.5,35.1,53.5,44.8,34.6,98,97,86,30.16,29.88,7,2,0,0.11
2013-1-2,43.5,35.4,28.8,35.1,32.6,28.3,98,90,69,30.23,30.12,6,1,0,0.00
2013-1-3,45.5,36.8,25.0,37.2,32.7,24.5,98,86,70,30.34,30.22,5,1,0,0.00
2013-1-4,42.8,38.4,32.9,42.3,37.6,32.4,98,97,85,30.41,30.27,3,0,0,0.45
2013-1-5,54.9,43.3,35.4,48.5,41.5,34.9,98,94,74,30.28,30.11,5,1,0,0.02
2013-1-6,58.8,42.8,30.9,41.2,35.2,30.4,98,77,46,30.29,30.18,7,2,0,0.00
2013-1-7,55.4,42.5,28.6,45.9,37.8,28.1,98,85,60,30.23,29.96,7,2,0,0.00
2013-1-8,51.8,48.2,45.0,51.3,47.7,44.5,98,98,94,29.95,29.77,6,2,0,0.82
2013-1-9,56.8,54.9,52.0,56.2,54.3,51.5,98,98,98,29.90,29.72,10,3,0,1.96
2013-1-10,64.4,51.6,43.5,53.6,49.3,43.0,98,92,66,29.91,29.85,14,2,0,0.01
2013-1-11,77.0,58.7,41.9,69.2,56.4,41.4,98,93,71,29.91,29.68,12,2,0,0.00
2013-1-12,74.1,63.7,41.4,73.5,62.1,39.3,98,95,75,29.82,29.54,8,3,0,0.03
2013-1-13,50.2,40.4,33.3,39.4,32.9,27.2,95,75,56,30.09,29.82,9,4,0,0.00
2013-1-14,49.8,37.9,30.2,35.5,31.0,25.9,89,77,54,30.14,29.99,8,3,0,0.00
2013-1-15,39.2,34.5,29.8,36.4,33.5,29.3,98,96,81,30.14,29.98,8,3,0,0.02
2013-1-16,52.5,37.6,26.1,31.3,26.5,22.6,98,68,34,30.21,30.05,8,3,0,0.00
2013-1-17,66.2,47.1,31.3,45.2,36.6,27.5,98,70,44,30.39,30.18,5,2,0,0.00
2013-1-18,64.9,46.7,29.7,43.9,37.8,29.2,98,75,41,30.41,30.20,6,1,0,0.00
2013-1-19,71.1,51.0,39.4,55.6,47.1,38.8,98,88,53,30.21,30.03,7,2,0,0.00
2013-1-20,79.0,55.6,37.6,54.1,47.4,37.1,98,79,35,30.12,29.96,5,1,0,0.00
2013-1-21,68.9,53.5,42.6,55.0,48.0,42.1,98,84,57,30.15,30.02,6,1,0,0.00
2013-1-22,76.1,52.9,36.9,58.7,48.6,36.4,98,87,55,30.20,30.07,5,1,0,0.00
2013-1-23,78.6,60.0,45.5,64.9,56.5,45.0,98,90,61,30.22,30.07,7,1,0,0.00
2013-1-24,86.4,66.4,55.2,71.5,62.0,54.6,98,88,50,30.12,29.96,6,2,0,0.00
2013-1-25,86.5,65.8,50.5,71.0,61.7,50.0,98,89,54,30.06,29.89,6,2,0,0.00
2013-1-26,61.5,53.6,48.6,60.9,53.0,48.1,98,98,98,30.08,29.97,4,1,0,0.00
2013-1-27,78.3,67.0,52.7,73.6,65.5,52.2,98,95,76,29.99,29.83,12,4,0,0.00
2013-1-28,79.7,71.5,67.5,76.8,70.4,66.9,98,97,81,29.91,29.74,9,4,0,0.00
2013-1-29,82.2,68.7,53.1,77.8,61.4,28.2,98,80,35,29.75,29.37,12,6,0,0.00
2013-1-30,61.0,48.7,32.7,35.9,27.6,19.1,71,46,22,30.10,29.67,14,5,0,0.00
2013-1-31,72.9,48.8,31.1,31.3,26.9,15.3,74,47,11,30.16,30.04,7,1,0,0.00
2013-2-1,75.2,54.2,35.4,48.5,39.5,28.0,98,60,34,30.24,30.05,8,2,0,0.00
2013-2-2,82.0,58.7,42.8,62.1,51.6,42.3,98,80,45,30.21,30.07,7,1,0,0.00
2013-2-3,70.7,56.7,37.2,52.7,41.0,32.0,98,61,25,30.24,29.91,9,2,0,0.00
2013-2-4,80.2,63.0,54.9,69.6,59.8,51.4,98,91,57,29.91,29.68,8,2,0,0.04
2013-2-5,87.1,64.0,45.9,61.9,54.9,45.4,98,78,33,29.88,29.74,6,1,0,0.00
2013-2-6,78.3,64.5,55.8,70.8,62.3,55.2,98,93,65,29.89,29.71,7,2,0,0.00
2013-2-7,88.0,68.0,56.3,71.6,58.0,45.2,98,76,28,29.98,29.72,11,3,0,0.00
2013-2-8,70.7,56.2,43.9,54.8,40.6,29.2,98,62,23,30.13,29.98,10,3,0,0.00
2013-2-9,67.6,57.0,49.3,67.0,56.1,42.1,98,97,70,30.00,29.66,12,5,0,0.00
2013-2-10,68.4,60.0,51.4,67.8,49.1,37.2,98,72,34,29.92,29.60,12,2,0,0.66
2013-2-11,61.3,53.7,49.3,60.7,52.0,46.9,98,95,63,29.98,29.88,9,3,0,0.00
2013-2-12,72.9,56.0,44.8,65.5,50.6,36.6,98,86,33,29.96,29.69,12,3,0,0.02
2013-2-13,61.5,47.3,34.9,46.8,40.8,34.4,98,82,45,30.05,29.92,7,2,0,0.00
2013-2-14,78.4,54.5,34.9,53.7,41.4,34.4,98,69,26,30.00,29.86,5,1,0,0.00
2013-2-15,62.2,48.5,38.8,49.8,41.3,28.9,98,77,55,30.29,29.96,10,2,0,0.00
2013-2-16,65.8,47.3,27.7,38.9,34.3,27.2,98,66,34,30.33,30.10,9,2,0,0.00
2013-2-17,74.5,56.3,37.8,58.9,44.4,35.7,98,70,33,30.10,29.85,10,3,0,0.00
2013-2-18,84.0,67.1,52.5,72.8,51.1,-29.7,98,68,1,30.00,29.70,10,5,0,0.00
2013-2-19,68.9,55.8,39.2,41.8,37.4,31.2,98,53,28,30.18,29.99,10,4,0,0.00
2013-2-20,59.4,52.8,49.8,58.8,47.8,38.5,98,85,52,30.03,29.55,11,7,0,0.05
2013-2-21,79.7,65.0,45.1,66.5,41.8,-31.9,98,59,1,29.76,29.47,14,5,0,0.02
2013-2-22,65.1,47.4,37.9,44.5,38.5,33.7,98,74,41,29.96,29.72,7,2,0,0.00
2013-2-23,73.6,50.5,32.4,46.1,40.0,31.9,98,73,36,29.94,29.78,7,1,0,0.00
2013-2-24,74.8,56.4,35.2,64.9,50.5,34.7,98,84,47,29.82,29.45,11,4,0,0.00
2013-2-25,62.8,54.0,43.5,60.4,42.8,31.3,98,69,33,29.72,29.43,23,9,0,0.06
2013-2-26,66.2,52.1,35.6,40.7,37.0,34.0,98,60,34,29.83,29.72,12,4,0,0.00
2013-2-27,64.4,50.2,40.5,41.4,33.3,25.9,98,55,31,30.13,29.75,10,3,0,0.00
2013-2-28,63.1,47.4,33.3,42.5,33.0,26.9,98,62,32,30.22,30.08,8,2,0,0.00
2013-3-1,70.2,50.6,32.7,38.1,33.0,27.2,98,57,24,30.19,30.02,6,1,0,0.00
2013-3-2,63.3,48.3,34.7,42.9,35.3,31.4,98,65,35,30.32,30.15,10,2,0,0.00
2013-3-3,77.7,57.6,36.3,48.9,38.5,30.5,86,53,26,30.16,29.76,10,3,0,0.00
2013-3-4,94.8,69.0,54.3,64.1,52.4,43.7,98,63,19,29.77,29.55,7,2,0,0.00
2013-3-5,70.2,54.8,38.5,61.1,19.8,-41.0,98,45,1,30.27,29.63,12,4,0,0.00
2013-3-6,70.2,48.3,29.8,29.6,22.9,-36.6,68,42,1,30.34,30.11,7,2,0,0.00
2013-3-7,77.2,57.2,39.2,64.7,48.1,26.3,98,74,46,30.14,29.97,10,3,0,0.00
2013-3-8,63.3,59.5,55.9,62.7,58.9,55.3,98,98,98,30.05,29.89,8,4,0,0.10
2013-3-9,72.3,65.7,61.0,71.7,65.1,60.4,98,98,98,29.89,29.53,11,5,0,0.18
2013-3-10,67.1,57.0,42.1,60.6,47.9,38.7,98,74,45,30.01,29.64,10,4,0,0.51
2013-3-11,67.3,48.8,32.9,41.0,34.7,29.4,98,66,28,30.06,29.90,8,2,0,0.00
2013-3-12,84.6,59.1,38.7,48.5,42.1,36.3,98,61,22,30.16,29.94,8,2,0,0.00
2013-3-13,75.9,60.4,45.7,47.0,43.2,38.4,83,55,35,30.34,30.17,8,4,0,0.00
2013-3-14,79.2,62.4,46.6,67.0,53.3,46.1,98,76,41,30.27,30.09,6,2,0,0.00
2013-3-15,86.9,67.8,53.4,71.2,55.1,47.7,98,70,33,30.12,29.86,8,3,0,0.00
2013-3-16,89.2,70.5,56.1,73.0,62.0,55.5,98,79,41,29.87,29.60,9,4,0,0.00
2013-3-17,92.1,73.2,63.3,77.5,66.9,62.7,98,84,45,29.68,29.52,9,2,0,0.00
2013-3-18,90.3,73.5,59.0,78.6,60.8,53.6,98,71,31,29.83,29.58,9,2,0,0.00
2013-3-19,82.9,63.4,45.9,71.9,59.0,45.4,98,88,55,29.93,29.72,9,3,0,0.60
2013-3-20,71.2,58.8,48.2,60.7,49.7,40.9,98,76,34,30.15,29.93,10,3,0,0.12
2013-3-21,77.5,63.3,50.2,74.6,61.7,46.2,98,95,68,29.92,29.47,9,3,0,0.00
2013-3-22,84.0,69.5,51.1,77.5,65.7,50.6,98,89,56,29.67,29.49,8,2,0,0.00
2013-3-23,80.8,59.7,48.9,77.1,57.9,48.4,98,95,60,29.69,29.47,6,2,0,0.00
2013-3-24,59.0,49.9,39.0,57.5,38.4,30.1,98,69,37,30.07,29.57,13,5,0,0.00
2013-3-25,62.8,46.0,31.3,34.5,28.4,22.9,98,55,26,30.29,30.07,7,2,0,0.00
2013-3-26,66.7,48.2,28.6,40.2,30.9,27.8,98,58,27,30.37,30.17,7,2,0,0.00
2013-3-27,71.2,55.6,35.8,59.1,45.0,30.0,98,70,47,30.20,30.01,8,3,0,0.00
2013-3-28,72.9,62.3,51.3,72.3,61.7,50.8,98,98,98,30.09,29.99,9,3,0,0.00
2013-3-29,78.3,68.0,58.3,73.0,64.2,57.7,98,89,62,30.06,29.93,10,4,0,0.00
2013-3-30,83.5,70.9,62.4,79.3,67.5,61.8,98,90,61,29.98,29.76,9,2,0,0.00
2013-3-31,77.5,68.7,61.9,76.9,68.1,61.3,98,98,98,29.87,29.76,6,1,0,0.16
2013-4-1,83.8,69.5,56.3,82.3,68.1,55.7,98,96,72,29.96,29.77,8,2,0,0.00
2013-4-2,70.0,65.4,62.4,69.4,64.8,61.8,98,98,98,29.88,29.66,12,3,0,0.12
2013-4-3,53.6,50.3,47.5,53.0,49.8,47.0,98,98,98,30.04,29.74,8,3,0,0.71
2013-4-4,58.3,48.9,41.9,57.7,48.4,41.4,98,98,98,30.11,30.01,8,3,0,0.00
2013-4-5,73.4,53.5,34.9,59.8,44.9,34.4,98,79,33,30.16,29.94,6,1,0,0.00
2013-4-6,81.1,64.7,50.4,72.3,58.0,49.9,98,83,45,29.94,29.72,7,3,0,0.00
2013-4-7,82.4,68.4,61.3,81.8,67.8,60.7,98,98,98,29.81,29.62,9,4,0,0.00
2013-4-8,74.3,69.1,65.8,73.7,68.5,65.2,98,98,98,29.69,29.54,11,4,0,0.00
2013-4-9,84.6,73.4,68.9,84.0,72.8,68.3,98,98,98,29.58,29.45,12,7,0,0.00
2013-4-10,72.9,53.5,41.7,72.3,53.0,41.2,98,98,98,29.85,29.51,16,5,0,0.46
2013-4-11,69.6,53.6,41.4,56.0,40.2,27.1,98,70,21,29.87,29.69,11,2,0,0.00
2013-4-12,85.8,62.0,42.3,59.5,27.6,-31.5,98,53,1,29.88,29.73,8,2,0,0.00
2013-4-13,79.0,63.8,51.4,70.3,55.9,34.3,98,82,23,29.84,29.67,8,2,0,0.05
2013-4-14,95.0,73.0,56.3,84.0,63.4,55.7,98,79,29,29.69,29.44,9,3,0,0.00
2013-4-15,93.2,77.4,68.5,81.8,72.1,64.1,98,87,40,29.66,29.53,8,4,0,0.00
2013-4-16,92.3,77.9,68.2,85.6,71.8,65.9,98,85,43,29.76,29.66,13,5,0,0.00
2013-4-17,85.6,76.5,72.1,85.0,75.9,71.5,98,98,98,29.75,29.55,11,6,0,0.00
2013-4-18,74.1,60.7,47.7,73.5,52.7,32.1,98,80,28,30.00,29.50,12,4,0,0.50
2013-4-19,74.5,55.6,38.5,51.5,3.1,-44.1,98,42,1,30.19,30.00,7,2,0,0.00
2013-4-20,77.4,58.0,36.9,56.8,1.8,-40.2,98,39,1,30.11,29.87,11,3,0,0.00
2013-4-21,82.0,63.3,46.2,68.7,52.9,41.6,98,77,24,30.04,29.89,9,4,0,0.00
2013-4-22,89.2,71.8,53.4,77.7,58.7,49.6,98,72,27,29.98,29.72,8,3,0,0.00
2013-4-23,76.1,62.5,46.9,75.5,62.0,46.4,98,98,98,30.04,29.71,8,3,0,0.00
2013-4-24,66.2,52.9,41.9,45.9,19.0,-40.2,98,50,1,30.17,30.04,12,4,0,0.00
2013-4-25,69.6,60.4,53.1,59.7,43.8,30.2,98,62,24,30.23,30.06,8,2,0,0.00
2013-4-26,77.5,68.2,59.5,76.9,65.1,32.8,98,92,31,30.05,29.88,8,2,0,0.00
2013-4-27,92.1,74.9,67.5,83.6,71.0,63.0,98,90,40,29.97,29.83,6,2,0,0.02
2013-4-28,94.6,77.0,61.9,80.9,60.3,-22.1,98,69,1,29.94,29.71,9,2,0,0.00
2013-4-29,91.9,74.3,64.0,91.3,72.1,63.4,98,94,55,29.82,29.65,11,3,0,0.00
2013-4-30,87.6,73.3,60.3,79.1,64.8,56.2,98,80,37,29.74,29.59,9,2,0,0.00
2013-5-1,99.1,77.9,65.7,84.3,69.2,58.1,98,81,26,29.84,29.66,8,3,0,0.00
2013-5-2,72.3,54.5,45.0,71.7,54.0,44.5,98,98,98,30.24,29.80,14,6,0,0.00
2013-5-3,77.0,56.4,38.7,44.8,-8.2,-48.7,98,35,1,30.24,29.96,9,4,0,0.00
2013-5-4,85.6,64.9,41.2,39.9,-12.4,-42.3,95,19,1,29.96,29.75,10,2,0,0.00
2013-5-5,80.8,62.7,43.2,56.2,5.5,-44.9,98,29,1,30.06,29.87,9,2,0,0.00
2013-5-6,88.9,64.6,46.0,64.0,17.4,-33.1,98,50,1,30.04,29.88,5,1,0,0.00
2013-5-7,93.9,72.1,48.6,65.8,9.0,-31.6,98,38,1,29.98,29.78,9,2,0,0.00
2013-5-8,90.7,74.2,61.7,79.3,59.8,39.8,98,70,20,29.91,29.75,9,3,0,0.00
2013-5-9,78.4,70.3,64.4,77.8,69.7,63.8,98,98,98,29.83,29.74,10,2,0,0.22
2013-5-10,93.7,75.0,60.3,83.7,68.7,48.6,98,85,24,29.91,29.72,10,4,0,0.26
2013-5-11,88.7,71.1,59.4,74.2,31.7,-31.7,98,54,1,30.04,29.89,9,2,0,0.01
2013-5-12,90.9,70.0,54.3,67.4,23.1,-36.9,98,48,1,30.17,30.01,7,2,0,0.00
2013-5-13,96.3,73.4,50.7,91.3,52.2,-26.2,98,62,1,30.16,30.02,7,1,0,0.00
2013-5-14,93.4,76.3,59.7,77.7,52.0,-24.5,98,65,1,30.09,29.86,9,3,0,0.00
2013-5-15,90.5,74.3,65.5,85.9,72.7,63.0,98,96,41,29.96,29.67,10,4,0,0.31
2013-5-16,96.3,77.6,63.3,87.4,69.5,51.5,98,84,23,29.78,29.58,8,4,0,0.86
2013-5-17,97.2,83.3,73.4,88.8,73.7,58.5,98,80,29,29.75,29.64,8,3,0,0.00
2013-5-18,99.3,83.1,70.5,87.6,62.4,-18.0,98,64,1,29.78,29.66,10,4,0,0.00
2013-5-19,96.4,81.9,71.2,88.6,70.2,54.8,98,75,25,29.72,29.59,12,4,0,0.00
2013-5-20,96.6,82.6,72.0,86.8,69.9,55.1,98,74,26,29.71,29.55,10,5,0,0.00
2013-5-21,91.0,77.3,67.6,87.4,74.7,62.7,98,93,41,29.77,29.58,10,4,0,0.02
2013-5-22,99.9,77.8,53.4,78.6,29.8,-25.7,98,54,1,29.81,29.68,8,2,0,0.00
2013-5-23,90.9,79.0,71.8,89.4,78.2,71.2,98,97,65,29.92,29.76,9,3,0,0.00
2013-5-24,85.1,73.5,66.9,84.5,72.9,66.3,98,98,98,30.00,29.88,8,2,0,1.33
2013-5-25,85.6,72.3,67.5,85.0,71.7,66.9,98,98,98,30.02,29.91,9,4,0,1.36
2013-5-26,93.9,80.4,71.2,92.9,79.5,70.6,98,97,75,29.96,29.84,9,4,0,0.03
2013-5-27,93.9,78.3,70.2,88.6,74.7,63.1,98,91,39,29.89,29.70,7,4,0,0.00
2013-5-28,92.5,79.9,71.8,87.7,72.6,60.9,98,83,36,29.77,29.64,14,5,0,0.00
2013-5-29,87.1,78.8,74.1,86.5,78.2,73.5,98,98,98,29.68,29.57,11,5,0,0.02
2013-5-30,92.7,81.0,74.1,90.1,78.1,67.4,98,93,44,29.71,29.61,10,4,0,0.00
2013-5-31,92.5,82.1,75.2,91.8,81.5,74.6,98,98,98,29.74,29.61,7,4,0,0.00
2013-6-1,102.7,84.8,75.2,89.2,72.3,29.2,98,76,8,29.74,29.64,11,4,0,0.00
2013-6-2,96.8,79.6,66.7,78.6,41.9,-24.0,98,59,1,29.96,29.80,6,2,0,0.05
2013-6-3,99.7,79.6,60.1,80.7,35.7,-25.0,98,55,1,29.88,29.70,6,2,0,0.00
2013-6-4,99.5,84.1,69.3,83.6,40.0,-22.7,98,50,1,29.78,29.66,8,3,0,0.00
2013-6-5,99.0,83.5,69.4,84.9,44.7,-22.2,98,58,1,29.77,29.62,10,3,0,0.00
2013-6-6,102.2,84.0,71.1,81.8,42.8,-21.9,98,61,1,29.77,29.66,7,1,0,0.00
2013-6-7,93.2,80.8,67.5,64.8,10.4,-28.2,91,22,1,29.83,29.76,5,1,0,0.00
2013-6-8,99.5,79.0,57.9,80.5,46.1,-21.3,98,58,1,29.85,29.67,10,2,0,0.00
2013-6-9,96.6,79.9,66.4,84.0,70.6,48.2,98,81,22,29.86,29.72,5,2,0,0.21
2013-6-10,104.4,85.9,69.3,89.7,38.9,-22.7,98,55,1,29.88,29.78,6,2,0,0.00
2013-6-11,100.2,85.0,72.9,88.6,53.3,-21.4,98,62,1,29.92,29.83,9,2,0,0.00
2013-6-12,102.9,85.2,73.6,91.3,56.4,-19.5,98,66,1,29.94,29.83,7,2,0,0.00
2013-6-13,104.4,85.1,72.0,92.7,55.1,-19.0,98,66,1,29.96,29.80,7,2,0,0.00
2013-6-14,100.8,82.8,72.0,92.5,69.3,-19.0,98,78,1,29.89,29.78,7,1,0,0.00
2013-6-15,95.4,83.6,75.9,89.5,71.7,53.2,98,74,25,29.89,29.79,6,1,0,0.00
2013-6-16,105.1,83.8,73.0,90.8,61.8,-16.5,98,75,1,29.91,29.83,7,2,0,0.00
2013-6-17,-200.0,0.0,200.0,-99.9,-99.9,-99.9,0,0,100,0.00,40.00,0,-999,0,0.00
2013-6-23,95.9,88.2,80.4,70.6,61.1,-99.9,60,42,35,29.86,29.76,9,-14,0,0.00
2013-6-24,97.3,85.2,74.8,72.4,68.6,64.2,89,61,37,29.91,29.77,10,5,0,0.00
2013-6-25,99.3,86.9,76.1,71.6,67.7,62.4,85,56,32,29.89,29.73,14,5,0,0.00
2013-6-26,100.8,86.9,75.4,72.7,69.0,64.6,85,58,32,29.86,29.75,9,4,0,0.00
2013-6-27,103.6,87.5,74.3,72.1,65.2,54.6,88,53,22,29.92,29.78,6,3,0,0.00
2013-6-28,108.0,89.8,73.0,71.1,64.8,57.6,85,48,24,29.88,29.69,7,2,0,0.00
2013-6-29,106.2,91.7,74.8,70.2,63.0,57.8,72,42,22,29.76,29.63,8,3,0,0.00
2013-6-30,100.9,83.9,69.4,69.6,64.6,57.3,98,57,29,29.83,29.71,8,3,0,0.19
2013-7-1,88.9,78.6,68.2,59.9,54.6,50.3,64,45,29,29.91,29.80,11,2,0,0.00
2013-7-2,95.0,78.9,62.2,58.6,50.5,41.0,71,41,18,29.97,29.85,11,2,0,0.00
2013-7-3,96.4,80.4,60.3,59.5,48.7,44.9,68,36,18,29.93,29.80,7,3,0,0.00
2013-7-4,97.0,81.1,65.1,66.3,56.1,47.8,91,47,23,29.89,29.78,9,2,0,0.00
2013-7-5,99.7,85.7,66.6,67.1,59.7,54.4,90,46,24,29.88,29.72,9,4,0,0.00
2013-7-6,98.6,85.3,69.1,69.6,64.5,57.6,91,54,29,29.83,29.70,10,4,0,0.00
2013-7-7,99.7,85.8,72.3,72.8,68.5,63.7,92,60,32,29.87,29.75,10,4,0,0.00
2013-7-8,89.6,79.6,74.8,75.5,71.8,66.4,98,78,54,30.00,29.87,7,3,0,0.56
2013-7-9,102.2,85.8,71.6,73.5,69.8,65.6,99,64,32,30.04,29.88,8,3,0,0.00
2013-7-10,102.0,87.4,72.5,73.5,68.9,62.8,96,59,30,29.98,29.80,6,3,0,0.00
2013-7-11,101.1,87.2,74.8,73.1,66.7,58.1,87,55,26,29.89,29.74,9,3,0,0.00
2013-7-12,100.9,88.7,74.5,70.3,64.7,59.8,77,48,28,29.85,29.75,8,3,0,0.00
2013-7-13,103.5,89.8,73.0,67.6,63.6,59.4,79,46,26,29.87,29.72,7,2,0,0.00
2013-7-14,91.9,78.0,67.5,67.7,63.5,60.0,99,63,39,29.83,29.75,12,4,0,0.08
2013-7-15,73.2,68.7,66.2,72.9,68.4,65.9,99,99,99,29.93,29.79,8,4,0,2.74
2013-7-16,88.5,75.4,68.4,76.3,71.3,68.1,99,89,56,30.03,29.91,10,4,0,0.09
2013-7-17,87.8,74.3,70.3,76.5,71.9,70.0,99,93,61,30.08,29.99,9,3,0,0.52
2013-7-18,96.6,80.0,70.3,74.9,70.0,64.9,99,75,37,30.06,29.88,7,2,0,0.00
2013-7-19,96.1,81.6,68.0,73.5,67.4,60.1,99,67,33,29.96,29.79,8,2,0,0.00
2013-7-20,93.9,81.0,73.0,73.3,70.4,65.9,95,73,40,29.89,29.72,10,2,0,0.00
2013-7-21,96.3,81.9,71.8,75.3,72.3,69.2,99,75,45,29.84,29.75,7,3,0,0.00
2013-7-22,97.3,85.2,75.0,75.5,72.3,68.1,94,68,42,29.87,29.76,10,4,0,0.00
2013-7-23,97.5,85.1,75.6,73.9,70.3,64.0,91,64,36,29.89,29.75,9,4,0,0.00
2013-7-24,95.4,84.7,74.3,75.0,72.3,68.2,93,69,43,29.88,29.76,8,2,0,0.00
2013-7-25,97.7,86.2,73.6,73.6,69.2,64.9,94,60,38,29.90,29.83,6,2,0,0.00
2013-7-26,99.1,86.0,74.5,74.5,70.4,66.7,92,62,39,29.90,29.74,6,3,0,0.04
2013-7-27,89.8,79.2,72.3,74.8,70.9,67.1,99,78,50,29.89,29.78,9,3,0,0.00
2013-7-28,97.5,82.0,70.0,75.4,70.2,67.0,96,71,41,29.85,29.72,7,3,0,0.00
2013-7-29,99.3,85.9,76.6,73.7,69.4,61.5,88,62,31,29.91,29.81,8,4,0,0.00
2013-7-30,100.6,86.9,75.0,73.0,69.2,63.8,89,59,33,29.98,29.85,12,4,0,0.00
2013-7-31,102.4,87.4,73.2,72.1,67.1,62.5,92,56,30,29.98,29.81,6,3,0,0.00
2013-8-1,102.6,88.4,73.9,69.9,67.0,63.6,80,52,32,29.91,29.78,6,2,0,0.00
2013-8-2,101.3,88.6,75.0,68.2,65.1,61.3,71,48,30,29.86,29.76,6,2,0,0.00
2013-8-3,99.9,87.8,75.2,72.8,68.1,63.4,88,56,32,29.90,29.81,10,4,0,0.00
2013-8-4,99.9,87.9,75.0,74.3,70.4,67.0,91,59,37,29.96,29.81,7,3,0,0.00
2013-8-5,101.3,87.9,73.6,72.2,67.5,62.7,88,54,29,29.92,29.75,6,3,0,0.00
2013-8-6,102.9,88.9,74.3,73.1,68.6,62.4,87,55,29,29.83,29.69,8,4,0,0.00
2013-8-7,104.9,89.2,75.0,73.6,68.9,58.5,88,55,27,29.80,29.66,10,4,0,0.00
2013-8-8,104.9,88.3,74.3,73.4,67.1,56.2,90,55,23,29.78,29.65,7,3,0,0.00
2013-8-9,102.6,87.5,72.3,73.2,63.6,51.7,96,52,19,29.85,29.74,7,3,0,0.00
2013-8-10,103.1,87.0,73.2,74.9,68.0,55.7,96,58,30,29.93,29.81,11,2,0,0.48
2013-8-11,98.6,84.5,73.4,76.4,71.9,65.6,99,70,36,29.97,29.85,6,2,0,0.00
2013-8-12,99.0,85.0,72.1,73.7,69.1,64.6,96,63,36,29.96,29.82,7,2,0,0.00
2013-8-13,103.6,88.7,74.1,72.6,67.2,61.4,88,53,27,29.93,29.77,7,3,0,0.00
2013-8-14,96.3,80.8,73.6,73.3,69.8,62.7,98,71,42,29.90,29.78,8,2,0,0.16
2013-8-15,91.2,77.6,71.6,75.1,72.9,71.3,99,87,55,29.92,29.81,7,2,0,0.32
2013-8-16,91.8,78.6,69.3,76.1,68.7,62.7,99,75,42,29.95,29.82,7,2,0,0.00
2013-8-17,93.0,80.4,67.6,67.3,63.3,57.4,91,60,35,29.95,29.82,7,3,0,0.00
2013-8-18,94.1,80.7,63.9,62.4,59.2,57.5,83,51,32,29.96,29.86,8,2,0,0.00
2013-8-19,99.1,82.1,65.1,66.6,60.8,58.1,84,52,30,29.94,29.80,7,2,0,0.00
2013-8-20,96.6,83.3,66.7,67.4,62.7,56.7,91,54,27,29.92,29.81,10,3,0,0.00
2013-8-21,95.9,82.4,70.7,72.7,67.8,64.0,91,64,38,29.97,29.84,8,3,0,0.00
2013-8-22,99.0,86.2,71.4,73.7,68.7,65.4,92,59,37,29.98,29.80,9,3,0,0.00
2013-8-23,99.0,86.5,72.1,73.5,67.5,62.0,93,58,32,29.92,29.78,9,3,0,0.00
2013-8-24,99.1,85.2,72.9,75.4,67.5,63.6,83,58,36,29.94,29.82,11,2,0,0.02
2013-8-25,96.6,85.1,72.0,72.8,68.3,65.8,91,60,39,29.98,29.90,10,4,0,0.00
2013-8-26,93.9,80.4,73.2,71.4,69.3,66.3,87,71,43,30.03,29.90,12,5,0,0.00
2013-8-27,85.6,77.0,70.7,73.9,69.3,62.4,92,78,54,30.02,29.91,8,4,0,0.00
2013-8-28,96.8,82.6,68.7,74.2,67.8,64.6,99,66,36,30.00,29.88,12,2,0,0.00
2013-8-29,100.9,86.0,71.2,69.6,65.2,61.7,86,54,30,29.97,29.83,5,2,0,0.00
2013-8-30,105.4,87.8,73.8,66.9,62.7,59.3,71,46,26,29.90,29.75,6,2,0,0.00
2013-8-31,104.4,88.7,74.5,68.4,65.5,61.5,77,50,28,29.82,29.68,7,2,0,0.00
2013-9-1,101.3,87.7,73.8,71.6,67.0,64.1,80,53,34,29.80,29.68,8,2,0,0.00
2013-9-2,99.3,85.3,73.2,72.9,69.3,64.2,94,62,36,29.86,29.71,6,2,0,0.07
2013-9-3,99.1,84.4,70.5,72.6,68.5,64.7,95,63,35,29.89,29.76,7,2,0,0.01
2013-9-4,100.2,86.0,73.4,73.9,69.0,65.8,95,61,35,29.95,29.81,7,3,0,0.05
2013-9-5,98.8,84.7,70.7,72.2,67.9,64.8,87,60,36,29.99,29.87,9,2,0,0.00
2013-9-6,98.6,84.9,70.2,72.4,67.8,62.2,94,61,34,29.97,29.83,7,2,0,0.00
2013-9-7,97.7,82.4,70.0,74.3,68.7,64.8,96,67,36,29.92,29.77,12,3,0,0.00
2013-9-8,96.6,78.8,67.6,72.9,68.9,64.1,97,76,38,29.87,29.73,8,2,0,0.50
2013-9-9,93.9,77.1,68.7,74.9,69.8,64.5,99,82,40,29.88,29.77,19,3,0,0.68
2013-9-10,91.6,77.0,70.5,74.7,71.1,68.8,99,84,51,29.95,29.85,10,3,0,0.01
2013-9-11,91.8,80.2,70.7,73.8,68.3,62.2,98,71,38,30.00,29.87,7,3,0,0.00
2013-9-12,94.5,81.4,68.2,73.5,66.8,63.2,97,65,38,29.95,29.80,7,2,0,0.00
2013-9-13,96.4,82.6,68.2,71.5,64.4,60.9,92,58,32,29.85,29.69,9,2,0,0.00
2013-9-14,96.4,83.6,70.5,70.1,64.9,58.8,83,56,36,29.82,29.71,8,2,0,0.00
2013-9-15,92.5,81.3,71.2,73.6,69.1,66.4,93,69,45,29.90,29.80,8,3,0,0.00
2013-9-16,92.5,79.6,70.5,74.4,69.9,67.1,95,75,48,29.96,29.83,9,3,0,0.38
2013-9-17,91.4,79.6,71.6,75.8,71.2,67.3,98,78,47,29.95,29.81,6,2,0,0.01
2013-9-18,93.9,81.1,70.0,74.6,69.0,64.8,97,70,41,29.91,29.75,7,2,0,0.00
2013-9-19,90.9,78.6,72.1,74.9,72.0,69.1,97,82,54,29.85,29.70,8,3,0,0.49
2013-9-20,76.1,72.6,68.5,75.2,72.0,67.6,99,98,96,29.78,29.68,6,2,0,5.00
2013-9-21,83.1,71.6,62.4,67.9,58.3,46.8,98,67,31,29.84,29.72,9,3,0,0.00
2013-9-22,82.8,69.1,54.7,56.6,52.2,47.9,89,58,34,29.82,29.66,8,2,0,0.00
2013-9-23,87.8,71.2,54.3,58.1,53.5,49.7,90,58,30,29.74,29.61,4,1,0,0.00
2013-9-24,93.0,77.2,60.4,62.9,58.4,50.7,85,55,33,29.81,29.71,6,1,0,0.00
2013-9-25,96.3,79.2,63.3,66.6,61.5,58.9,88,58,33,29.79,29.65,5,2,0,0.00
2013-9-26,90.3,78.8,66.6,71.5,60.2,53.5,82,55,31,29.78,29.69,9,3,0,0.00
2013-9-27,89.4,78.8,71.2,74.6,72.6,69.7,96,82,62,29.79,29.70,8,4,0,0.00
2013-9-28,89.1,78.3,71.2,77.8,73.8,69.6,95,87,60,29.90,29.75,7,3,0,1.01
2013-9-29,77.4,67.7,62.2,69.2,63.4,60.7,98,87,60,29.96,29.82,6,2,0,0.12
2013-9-30,87.6,71.9,57.4,65.1,58.9,53.2,99,69,35,29.85,29.68,5,2,0,0.00
2013-10-1,88.7,73.6,60.8,72.1,65.6,57.0,99,78,50,29.82,29.71,6,2,0,0.00
2013-10-2,90.3,79.0,72.9,74.6,71.7,69.2,94,80,53,29.85,29.73,7,4,0,0.00
2013-10-3,90.7,80.4,71.6,74.8,70.8,67.4,97,75,51,29.81,29.71,7,3,0,0.00
2013-10-4,89.8,79.6,71.8,71.9,69.9,68.8,93,74,52,29.79,29.71,10,4,0,0.00
2013-10-5,85.5,72.2,59.4,72.8,61.5,40.8,96,71,48,29.98,29.75,6,3,0,0.00
2013-10-6,79.9,64.5,49.6,52.2,43.7,36.3,93,53,22,30.03,29.94,7,3,0,0.01
2013-10-7,85.1,66.0,44.1,45.7,41.4,37.0,85,45,22,30.07,29.91,4,1,0,0.00
2013-10-8,84.6,66.8,48.9,51.1,47.0,42.2,85,52,29,29.98,29.85,6,2,0,0.00
2013-10-9,82.8,68.4,52.2,61.0,54.5,46.1,95,64,42,29.94,29.82,8,2,0,0.00
2013-10-10,85.3,71.0,59.0,66.8,61.9,57.0,99,75,50,29.94,29.75,7,3,0,0.00
2013-10-11,87.8,76.6,69.1,73.6,69.7,65.6,91,80,57,29.83,29.70,10,3,0,0.00
2013-10-12,92.5,79.6,71.4,75.5,72.1,68.6,96,80,51,29.91,29.78,9,3,0,0.00
2013-10-13,75.6,70.1,65.5,70.8,68.2,64.9,99,94,84,30.05,29.91,9,4,0,0.92
2013-10-14,79.7,72.6,69.8,74.4,70.8,69.5,99,94,84,29.98,29.80,9,3,0,0.05
2013-10-15,81.9,70.7,54.9,73.6,66.9,53.2,97,88,70,29.90,29.77,6,3,0,0.00
2013-10-16,62.4,55.8,51.4,58.8,54.1,51.1,99,94,86,29.98,29.88,6,2,0,1.10
2013-10-17,72.5,58.9,46.9,52.3,48.8,45.1,97,73,41,30.05,29.87,5,2,0,0.00
2013-10-18,72.0,61.7,51.6,61.9,56.3,49.4,96,83,67,29.95,29.78,8,2,0,0.00
2013-10-19,65.5,53.6,42.8,53.7,43.1,38.3,95,71,39,30.12,29.95,8,2,0,0.00
2013-10-20,73.2,56.2,38.5,51.2,45.0,37.5,98,70,41,30.00,29.80,7,2,0,0.00
2013-10-21,82.4,65.5,56.5,66.8,58.9,50.0,93,80,57,29.98,29.79,8,2,0,0.00
2013-10-22,75.7,61.1,46.6,54.1,45.5,40.1,93,62,29,30.06,29.97,6,2,0,0.00
2013-10-23,82.8,63.7,48.0,52.0,44.8,40.9,83,55,23,30.05,29.95,4,1,0,0.00
2013-10-24,82.2,64.1,49.8,50.8,46.1,43.0,79,56,28,30.12,30.00,5,1,0,0.00
2013-10-25,76.5,63.7,50.9,60.0,54.5,47.1,91,73,53,30.22,30.08,8,3,0,0.00
2013-10-26,79.9,68.1,60.6,64.7,61.1,57.6,90,79,57,30.11,29.93,6,3,0,0.13
2013-10-27,70.7,65.4,60.3,64.2,61.5,58.9,97,88,70,30.01,29.90,5,2,0,0.00
2013-10-28,79.9,70.0,62.1,69.0,65.1,61.2,98,85,63,29.98,29.85,8,4,0,0.00
2013-10-29,82.4,74.2,69.4,71.0,67.9,65.4,90,81,64,29.95,29.85,8,4,0,0.00
2013-10-30,82.0,74.5,70.7,73.8,71.0,67.2,98,89,73,29.91,29.68,8,2,0,0.51
2013-10-31,79.0,68.9,50.7,70.3,53.7,34.3,98,66,20,29.77,29.61,12,3,0,0.15
2013-11-1,82.6,62.8,46.6,56.7,44.2,38.1,87,56,22,29.97,29.68,9,2,0,0.00
2013-11-2,71.8,58.3,44.1,45.5,39.7,33.6,86,54,25,30.18,29.97,7,2,0,0.00
2013-11-3,69.1,54.2,38.1,51.6,40.5,35.6,93,63,33,30.12,29.89,8,3,0,0.00
2013-11-4,63.1,60.3,57.4,62.0,57.7,52.0,99,91,78,29.95,29.86,7,3,0,0.11
2013-11-5,77.5,68.9,62.2,67.7,65.5,61.9,99,90,70,29.90,29.77,8,4,0,0.00
2013-11-6,70.2,57.2,43.5,67.9,52.6,39.6,98,85,58,30.25,29.84,6,2,0,0.25
2013-11-7,64.4,50.5,36.0,43.5,38.6,34.1,94,67,37,30.36,30.25,7,2,0,0.00
2013-11-8,63.9,57.3,46.8,46.5,41.8,36.5,87,58,38,30.30,30.05,7,2,0,0.00
2013-11-9,67.8,60.0,53.4,57.1,52.3,45.2,86,76,66,30.08,29.99,6,2,0,0.00
2013-11-10,70.3,60.6,53.8,57.9,54.4,48.4,96,81,63,30.22,30.08,5,3,0,0.00
2013-11-11,75.0,59.2,44.4,56.6,51.2,43.3,97,77,49,30.18,30.04,5,1,0,0.00
2013-11-12,57.7,49.7,36.1,53.5,41.5,23.3,96,75,50,30.55,30.15,7,3,0,0.00
2013-11-13,54.3,39.3,28.6,29.0,25.5,22.6,83,60,35,30.55,30.28,6,2,0,0.00
2013-11-14,61.7,46.6,28.4,47.4,33.8,25.0,90,65,29,30.29,29.92,7,2,0,0.00
2013-11-15,78.3,62.5,48.6,59.6,54.3,47.8,98,77,50,29.93,29.72,7,2,0,0.00
2013-11-16,79.3,69.9,61.0,68.2,64.1,57.7,92,82,65,29.78,29.61,10,3,0,0.00
2013-11-17,88.2,73.7,58.3,70.4,60.9,49.7,98,68,33,29.83,29.65,8,2,0,0.00
2013-11-18,74.3,63.7,52.5,54.9,49.0,44.2,81,60,48,30.01,29.83,7,3,0,0.00
2013-11-19,70.5,59.7,50.9,46.5,44.0,41.8,75,58,38,30.05,29.87,8,3,0,0.00
2013-11-20,71.6,62.2,54.9,62.7,54.2,44.5,96,75,63,29.90,29.77,7,4,0,0.00
2013-11-21,79.5,71.0,63.9,70.3,67.2,62.5,99,89,72,29.94,29.82,7,2,0,0.30
2013-11-22,69.1,37.3,32.5,67.9,36.2,31.5,98,96,91,30.29,29.95,10,5,0,1.71
2013-11-23,39.2,35.8,32.7,37.6,34.7,32.2,99,96,88,30.37,30.27,14,4,0,0.12
2013-11-24,39.2,35.4,31.5,35.4,31.5,29.0,97,86,74,30.38,30.22,10,3,0,0.13
2013-11-25,39.6,35.1,31.8,37.2,33.9,31.0,99,95,89,30.24,29.98,7,2,0,0.50
2013-11-26,50.9,40.4,34.9,37.2,32.4,28.1,93,75,47,30.26,30.03,12,5,0,0.00
2013-11-27,49.3,37.3,27.1,29.0,24.3,19.2,88,62,33,30.37,30.23,7,2,0,0.00
2013-11-28,51.8,37.9,26.8,30.9,27.7,24.3,93,70,36,30.34,30.22,6,1,0,0.00
2013-11-29,61.0,46.2,28.9,47.0,39.7,25.6,97,79,58,30.38,30.24,6,2,0,0.00
2013-11-30,64.4,54.8,49.3,54.9,48.9,43.7,98,81,69,30.25,30.07,5,2,0,0.00
2013-12-1,72.1,62.2,53.8,60.1,56.5,53.2,98,82,65,30.09,29.82,7,2,0,0.00
2013-12-2,80.1,62.4,51.3,55.4,48.1,39.6,98,65,28,29.83,29.53,6,2,0,0.00
2013-12-3,84.2,61.9,46.4,50.9,44.4,40.1,89,58,23,29.58,29.46,5,1,0,0.00
2013-12-4,75.2,62.6,53.1,64.7,56.0,44.5,97,80,68,29.68,29.54,7,1,0,0.00
2013-12-5,61.2,39.3,28.2,60.6,33.3,23.9,98,80,64,30.00,29.66,8,4,0,0.00
2013-12-6,31.3,28.7,23.7,29.9,26.3,20.4,97,90,84,30.35,29.97,9,4,0,0.00
2013-12-7,27.7,24.0,21.7,22.6,20.4,17.9,94,86,78,30.35,30.17,9,3,0,0.00
2013-12-8,46.4,32.6,24.1,39.9,30.2,22.6,99,91,77,30.17,29.90,4,1,0,0.02
2013-12-9,36.1,33.6,29.8,35.8,32.9,28.0,99,97,93,30.29,29.95,7,3,0,0.06
2013-12-10,44.1,31.7,22.6,27.7,22.9,19.3,94,72,41,30.39,30.21,7,2,0,0.00
2013-12-11,55.6,38.4,23.2,32.2,27.3,21.2,95,68,35,30.46,30.21,5,1,0,0.00
2013-12-12,51.6,38.3,27.1,34.9,30.4,25.0,92,75,49,30.48,30.20,4,2,0,0.00
2013-12-13,48.2,43.3,39.4,47.9,40.6,33.6,99,90,77,30.20,29.77,5,2,0,0.23
2013-12-14,47.5,42.1,34.9,47.2,37.9,29.6,99,86,65,30.25,29.75,12,4,0,0.01
2013-12-15,59.4,41.5,25.7,35.3,30.3,24.0,96,68,37,30.26,30.15,5,2,0,0.00
2013-12-16,66.6,46.9,31.5,38.5,33.4,28.1,88,63,33,30.19,30.06,6,1,0,0.00
2013-12-17,71.8,50.9,36.7,41.5,35.4,31.2,83,59,27,30.20,30.11,4,1,0,0.00
2013-12-18,69.8,52.9,38.1,53.4,45.4,35.9,96,77,53,30.18,29.94,7,2,0,0.00
2013-12-19,72.1,62.7,53.2,61.8,57.0,49.6,91,82,63,29.93,29.67,12,4,0,0.00
2013-12-20,73.0,67.0,59.7,66.2,63.1,53.2,92,87,77,29.73,29.52,12,4,0,0.00
2013-12-21,64.4,49.1,38.8,56.7,43.8,37.9,99,84,51,29.70,29.45,12,3,0,0.47
2013-12-22,50.4,41.7,30.9,39.2,34.4,27.2,95,76,52,30.27,29.71,9,3,0,0.00
2013-12-23,54.1,37.6,25.0,30.6,27.2,23.5,94,70,33,30.43,30.27,5,2,0,0.00
2013-12-24,57.4,40.4,25.5,35.9,29.1,24.3,98,69,32,30.43,30.16,7,2,0,0.00
2013-12-25,62.6,46.0,36.0,48.7,41.0,34.4,99,84,59,30.30,30.13,5,2,0,0.00
2013-12-26,55.8,42.3,31.1,39.4,35.7,30.1,97,79,52,30.32,30.20,5,2,0,0.00
2013-12-27,57.6,46.2,35.4,41.1,38.2,34.4,96,76,45,30.33,30.22,4,1,0,0.00
2013-12-28,61.5,47.4,33.8,44.6,40.3,33.3,99,79,51,30.21,29.88,4,1,0,0.00
2013-12-29,57.2,44.8,29.7,48.7,41.4,28.7,96,88,72,30.19,29.84,9,3,0,0.00
2013-12-30,44.8,34.5,28.4,29.1,26.4,22.7,94,73,49,30.29,30.13,7,2,0,0.00
2013-12-31,55.0,39.2,28.6,32.1,29.2,25.7,93,70,39,30.34,30.12,4,2,0,0.00
2014-1-1,68.7,49.5,32.2,54.2,42.0,28.8,98,77,56,30.11,29.84,9,2,0,0.00
2014-1-2,50.7,37.7,25.9,37.4,25.0,21.0,83,62,37,30.35,30.03,10,3,0,0.00